createdAt,value
2023-05-04T00:02:23.007Z,8.03
2023-05-04T00:04:53.298Z,8.02
2023-05-04T00:07:20.417Z,8.02
2023-05-04T00:09:47.120Z,7.89
2023-05-04T00:12:13.780Z,7.81
2023-05-04T00:14:40.724Z,7.96
2023-05-04T00:17:08.170Z,7.95
2023-05-04T00:19:36.021Z,7.92
2023-05-04T00:22:02.790Z,7.84
2023-05-04T00:24:29.519Z,7.85
2023-05-04T00:26:56.332Z,7.88
2023-05-04T00:29:23.307Z,8.00
2023-05-04T00:31:50.291Z,7.95
2023-05-04T00:34:17.053Z,7.85
2023-05-04T00:36:43.900Z,7.76
2023-05-04T00:39:11.108Z,7.92
2023-05-04T00:41:37.858Z,8.08
2023-05-04T00:44:05.908Z,8.08
2023-05-04T00:46:33.914Z,7.96
2023-05-04T00:49:02.295Z,7.71
2023-05-04T00:51:30.147Z,7.86
2023-05-04T00:53:58.394Z,7.68
2023-05-04T00:56:26.137Z,7.89
2023-05-04T00:58:54.631Z,7.67
2023-05-04T01:01:22.466Z,8.08
2023-05-04T01:03:55.312Z,8.02
2023-05-04T01:06:28.659Z,8.18
2023-05-04T01:09:27.580Z,8.20
2023-05-04T01:12:11.606Z,8.16
2023-05-04T01:14:39.766Z,8.26
2023-05-04T01:17:08.367Z,8.27
2023-05-04T01:19:35.884Z,8.20
2023-05-04T01:22:02.680Z,7.89
2023-05-04T01:24:29.832Z,8.08
2023-05-04T01:27:05.280Z,8.11
2023-05-04T01:29:43.298Z,8.25
2023-05-04T01:32:12.241Z,8.22
2023-05-04T01:34:40.655Z,8.19
2023-05-04T01:37:08.847Z,8.26
2023-05-04T01:39:35.624Z,8.24
2023-05-04T01:42:02.649Z,8.20
2023-05-04T01:44:36.889Z,8.31
2023-05-04T01:47:04.149Z,8.35
2023-05-04T01:49:30.901Z,8.34
2023-05-04T01:51:57.877Z,8.45
2023-05-04T01:54:24.643Z,8.38
2023-05-04T01:56:51.823Z,8.31
2023-05-04T01:59:18.521Z,8.17
2023-05-04T02:01:45.352Z,8.33
2023-05-04T02:04:12.436Z,8.34
2023-05-04T02:06:39.217Z,8.21
2023-05-04T02:09:05.956Z,8.36
2023-05-04T02:11:32.989Z,8.38
2023-05-04T02:13:59.718Z,8.39
2023-05-04T02:16:26.507Z,7.95
2023-05-04T02:18:53.438Z,8.09
2023-05-04T02:21:20.301Z,8.24
2023-05-04T02:23:47.190Z,8.20
2023-05-04T02:26:14.118Z,8.35
2023-05-04T02:28:40.886Z,8.26
2023-05-04T02:31:07.923Z,8.39
2023-05-04T02:33:34.719Z,8.22
2023-05-04T02:36:01.720Z,8.08
2023-05-04T02:38:28.470Z,7.98
2023-05-04T02:40:55.547Z,8.05
2023-05-04T02:43:22.267Z,8.08
2023-05-04T02:45:48.984Z,8.10
2023-05-04T02:48:15.801Z,7.86
2023-05-04T02:50:43.853Z,8.02
2023-05-04T02:53:10.500Z,7.61
2023-05-04T02:55:37.838Z,7.72
2023-05-04T02:58:04.701Z,7.86
2023-05-04T03:00:31.288Z,7.74
2023-05-04T03:02:58.262Z,7.90
2023-05-04T03:05:25.025Z,7.89
2023-05-04T03:07:51.862Z,7.93
2023-05-04T03:10:18.814Z,7.81
2023-05-04T03:12:45.852Z,7.75
2023-05-04T03:15:12.704Z,7.77
2023-05-04T03:17:39.521Z,7.90
2023-05-04T03:20:08.554Z,7.75
2023-05-04T03:22:35.819Z,8.02
2023-05-04T03:25:02.666Z,7.86
2023-05-04T03:27:29.750Z,7.84
2023-05-04T03:29:56.488Z,7.90
2023-05-04T03:32:23.205Z,7.88
2023-05-04T03:34:50.040Z,7.75
2023-05-04T03:37:16.986Z,7.75
2023-05-04T03:39:43.924Z,7.75
2023-05-04T03:42:10.896Z,7.73
2023-05-04T03:44:37.552Z,7.65
2023-05-04T03:47:04.236Z,7.77
2023-05-04T03:49:32.355Z,7.73
2023-05-04T03:51:58.969Z,7.78
2023-05-04T03:54:26.431Z,7.77
2023-05-04T03:56:53.429Z,7.76
2023-05-04T03:59:20.166Z,7.86
2023-05-04T04:01:46.868Z,7.93
2023-05-04T04:04:13.782Z,7.69
2023-05-04T04:06:42.642Z,7.41
2023-05-04T04:09:10.061Z,7.71
2023-05-04T04:11:37.007Z,7.82
2023-05-04T04:14:04.030Z,7.74
2023-05-04T04:16:31.106Z,7.78
2023-05-04T04:18:58.423Z,7.74
2023-05-04T04:21:25.197Z,7.67
2023-05-04T04:23:51.916Z,8.12
2023-05-04T04:26:18.709Z,7.90
2023-05-04T04:28:50.611Z,7.90
2023-05-04T04:31:20.759Z,8.19
2023-05-04T04:33:50.237Z,8.14
2023-05-04T04:36:17.059Z,8.36
2023-05-04T04:38:44.531Z,8.47
2023-05-04T04:41:11.864Z,8.41
2023-05-04T04:43:39.246Z,8.41
2023-05-04T04:46:05.940Z,8.34
2023-05-04T04:48:32.833Z,8.26
2023-05-04T04:50:59.545Z,8.32
2023-05-04T04:53:27.786Z,8.54
2023-05-04T04:55:54.751Z,8.30
2023-05-04T04:58:22.127Z,8.40
2023-05-04T05:00:49.157Z,8.43
2023-05-04T05:03:16.127Z,8.65
2023-05-04T05:05:42.947Z,8.61
2023-05-04T05:08:09.693Z,8.42
2023-05-04T05:10:36.519Z,8.51
2023-05-04T05:13:03.297Z,8.45
2023-05-04T05:15:47.915Z,8.55
2023-05-04T05:47:10.619Z,9.26
2023-05-04T05:49:38.122Z,9.07
2023-05-04T05:52:55.013Z,9.26
2023-05-04T06:03:30.925Z,9.17
2023-05-04T07:14:08.476Z,10.39
2023-05-04T07:21:01.787Z,10.93
2023-05-04T07:29:14.615Z,10.93
2023-05-04T07:31:41.897Z,10.97
2023-05-04T07:34:08.810Z,10.89
2023-05-04T08:29:32.126Z,13.56
2023-05-04T08:32:00.320Z,13.84
2023-05-04T08:34:27.456Z,14.70
2023-05-04T08:48:54.473Z,13.15
2023-05-04T08:51:22.345Z,12.88
2023-05-04T08:58:18.357Z,12.32
2023-05-04T09:37:43.876Z,12.73
2023-05-04T09:40:14.586Z,12.73
2023-05-04T09:42:44.509Z,12.89
2023-05-04T09:45:12.538Z,12.68
2023-05-04T10:03:15.044Z,13.45
2023-05-04T10:34:51.978Z,11.94
2023-05-04T10:59:14.892Z,13.72
2023-05-04T11:19:23.214Z,14.52
2023-05-04T11:55:20.009Z,13.21
2023-05-04T12:02:05.741Z,13.56
2023-05-04T12:04:38.838Z,13.80
2023-05-04T12:51:44.214Z,14.98
2023-05-04T13:32:02.754Z,14.06
2023-05-04T13:34:29.643Z,14.13
2023-05-04T13:36:57.217Z,13.98
2023-05-04T13:39:23.973Z,14.27
2023-05-04T13:41:50.677Z,14.27
2023-05-04T13:44:17.379Z,14.20
2023-05-04T13:46:44.043Z,14.29
2023-05-04T13:49:10.912Z,14.21
2023-05-04T13:51:37.822Z,13.67
2023-05-04T13:54:14.676Z,13.47
2023-05-04T13:56:41.327Z,13.37
2023-05-04T13:59:08.002Z,13.15
2023-05-04T14:01:34.985Z,13.23
2023-05-04T14:04:02.240Z,13.18
2023-05-04T14:06:29.773Z,13.12
2023-05-04T14:08:56.558Z,13.12
2023-05-04T14:11:25.301Z,12.97
2023-05-04T14:13:53.840Z,12.98
2023-05-04T14:16:20.998Z,13.16
2023-05-04T14:18:47.832Z,13.02
2023-05-04T14:21:14.563Z,12.86
2023-05-04T14:23:41.299Z,13.13
2023-05-04T14:26:08.271Z,13.19
2023-05-04T14:28:35.050Z,12.80
2023-05-04T14:31:08.880Z,12.89
2023-05-04T14:33:41.723Z,13.02
2023-05-04T14:36:10.907Z,13.35
2023-05-04T14:38:37.797Z,13.38
2023-05-04T14:41:05.930Z,13.49
2023-05-04T14:43:32.922Z,13.35
2023-05-04T14:46:00.349Z,13.55
2023-05-04T14:48:27.815Z,13.68
2023-05-04T14:50:55.702Z,13.53
2023-05-04T14:53:23.432Z,13.52
2023-05-04T14:55:50.861Z,13.57
2023-05-04T14:58:18.687Z,13.33
2023-05-04T15:00:45.809Z,13.13
2023-05-04T15:03:12.791Z,13.09
2023-05-04T15:05:39.737Z,13.00
2023-05-04T15:08:06.910Z,12.60
2023-05-04T15:10:33.720Z,12.44
2023-05-04T15:13:00.800Z,12.29
2023-05-04T15:15:27.665Z,12.01
2023-05-04T15:17:54.546Z,11.96
2023-05-04T15:20:21.518Z,11.70
2023-05-04T15:22:53.888Z,11.58
2023-05-04T15:25:23.999Z,11.79
2023-05-04T15:27:50.704Z,11.61
2023-05-04T15:30:17.703Z,11.52
2023-05-04T15:32:44.466Z,11.98
2023-05-04T15:35:11.312Z,11.91
2023-05-04T15:37:38.103Z,12.08
2023-05-04T15:40:05.833Z,12.17
2023-05-04T15:42:32.735Z,11.89
2023-05-04T15:44:59.450Z,12.02
2023-05-04T15:47:26.278Z,11.74
2023-05-04T15:49:53.146Z,11.52
2023-05-04T15:52:20.813Z,11.44
2023-05-04T15:54:47.702Z,11.35
2023-05-04T15:57:16.176Z,11.09
2023-05-04T15:59:42.921Z,11.14
2023-05-04T16:02:10.107Z,11.27
2023-05-04T16:04:36.810Z,11.02
2023-05-04T16:07:03.558Z,10.93
2023-05-04T16:09:31.386Z,10.98
2023-05-04T16:11:58.290Z,11.09
2023-05-04T16:14:25.039Z,11.24
2023-05-04T16:16:51.858Z,11.11
2023-05-04T16:19:18.657Z,11.07
2023-05-04T16:21:45.516Z,11.11
2023-05-04T16:24:13.640Z,10.89
2023-05-04T16:26:41.057Z,10.76
2023-05-04T16:29:08.135Z,10.74
2023-05-04T16:31:35.205Z,10.59
2023-05-04T16:34:07.770Z,10.34
2023-05-04T16:36:34.916Z,10.17
2023-05-04T16:39:02.688Z,10.27
2023-05-04T16:41:31.016Z,10.02
2023-05-04T16:43:57.959Z,10.35
2023-05-04T16:46:25.180Z,10.34
2023-05-04T16:48:52.159Z,10.36
2023-05-04T16:51:19.036Z,10.11
2023-05-04T16:53:45.953Z,10.03
2023-05-04T16:56:23.058Z,9.93
2023-05-04T16:58:50.715Z,9.98
2023-05-04T17:01:17.643Z,9.85
2023-05-04T17:03:44.528Z,9.84
2023-05-04T17:06:11.270Z,9.76
2023-05-04T17:08:38.027Z,9.73
2023-05-04T17:11:04.836Z,9.63
2023-05-04T17:13:31.519Z,9.42
2023-05-04T17:15:58.214Z,9.49
2023-05-04T17:18:24.917Z,9.30
2023-05-04T17:20:51.803Z,9.52
2023-05-04T17:23:18.419Z,9.64
2023-05-04T17:25:46.116Z,9.57
2023-05-04T17:28:13.584Z,9.33
2023-05-04T17:30:50.235Z,9.40
2023-05-04T17:33:17.119Z,9.40
2023-05-04T17:35:43.814Z,9.54
2023-05-04T17:38:11.076Z,9.35
2023-05-04T17:40:37.806Z,9.44
2023-05-04T17:43:05.036Z,9.30
2023-05-04T17:45:31.805Z,9.27
2023-05-04T17:47:58.725Z,9.26
2023-05-04T17:50:26.172Z,9.24
2023-05-04T17:52:55.965Z,9.11
2023-05-04T17:55:24.878Z,8.94
2023-05-04T17:57:53.517Z,8.64
2023-05-04T18:00:20.938Z,8.95
2023-05-04T18:02:48.070Z,8.86
2023-05-04T18:05:15.276Z,8.80
2023-05-04T18:07:42.071Z,9.02
2023-05-04T18:10:09.374Z,9.05
2023-05-04T18:12:38.311Z,8.83
2023-05-04T18:15:08.475Z,9.23
2023-05-04T18:17:37.928Z,9.27
2023-05-04T18:20:08.356Z,9.09
2023-05-04T18:22:35.585Z,9.08
2023-05-04T18:25:03.304Z,9.15
2023-05-04T18:27:34.789Z,9.12
2023-05-04T18:30:02.683Z,9.03
2023-05-04T18:32:29.650Z,8.77
2023-05-04T18:34:58.038Z,8.96
2023-05-04T18:37:25.950Z,8.81
2023-05-04T18:39:52.965Z,8.74
2023-05-04T18:42:19.709Z,8.76
2023-05-04T18:44:46.612Z,9.00
2023-05-04T18:47:13.426Z,8.88
2023-05-04T18:49:40.113Z,9.14
2023-05-04T18:52:06.873Z,9.17
2023-05-04T18:54:33.786Z,9.09
2023-05-04T18:57:01.046Z,9.34
2023-05-04T18:59:27.811Z,9.18
2023-05-04T19:01:54.560Z,9.02
2023-05-04T19:04:21.550Z,8.86
2023-05-04T19:06:51.811Z,9.04
2023-05-04T19:09:19.058Z,9.07
2023-05-04T19:11:46.913Z,9.09
2023-05-04T19:14:14.061Z,8.76
2023-05-04T19:16:41.036Z,8.97
2023-05-04T19:19:08.908Z,8.89
2023-05-04T19:21:35.718Z,8.88
2023-05-04T19:24:02.586Z,8.79
2023-05-04T19:26:29.482Z,8.69
2023-05-04T19:28:56.789Z,8.88
2023-05-04T19:31:23.736Z,8.96
2023-05-04T19:33:50.526Z,9.13
2023-05-04T19:36:17.996Z,9.04
2023-05-04T19:38:44.879Z,9.14
2023-05-04T19:41:11.581Z,8.91
2023-05-04T19:43:38.925Z,8.76
2023-05-04T19:46:06.200Z,9.12
2023-05-04T19:48:33.048Z,9.01
2023-05-04T19:50:59.925Z,8.78
2023-05-04T19:53:26.871Z,8.50
2023-05-04T19:55:54.260Z,8.72
2023-05-04T19:58:22.154Z,8.41
2023-05-04T20:00:49.056Z,8.46
2023-05-04T20:03:17.209Z,8.60
2023-05-04T20:05:44.453Z,8.59
2023-05-04T20:08:12.048Z,8.74
2023-05-04T20:10:38.998Z,8.82
2023-05-04T20:13:06.863Z,8.86
2023-05-04T20:15:33.971Z,8.96
2023-05-04T20:18:00.711Z,8.72
2023-05-04T20:20:27.797Z,8.83
2023-05-04T20:22:56.111Z,8.92
2023-05-04T20:25:23.022Z,8.79
2023-05-04T20:27:52.244Z,9.02
2023-05-04T20:30:19.036Z,8.96
2023-05-04T20:32:48.182Z,9.00
2023-05-04T20:35:16.274Z,8.80
2023-05-04T20:37:43.635Z,8.82
2023-05-04T20:40:11.384Z,8.88
2023-05-04T20:42:38.605Z,9.07
2023-05-04T20:45:06.045Z,9.00
2023-05-04T20:47:32.932Z,8.86
2023-05-04T20:49:59.584Z,8.76
2023-05-04T20:52:26.305Z,8.72
2023-05-04T20:54:53.093Z,8.61
2023-05-04T20:57:20.134Z,8.83
2023-05-04T20:59:47.113Z,8.90
2023-05-04T21:02:13.906Z,8.98
2023-05-04T21:04:41.836Z,9.01
2023-05-04T21:07:08.678Z,8.95
2023-05-04T21:09:35.629Z,8.78
2023-05-04T21:12:02.968Z,8.86
2023-05-04T21:14:29.898Z,8.48
2023-05-04T21:16:56.778Z,8.74
2023-05-04T21:19:23.693Z,8.65
2023-05-04T21:21:57.297Z,8.65
2023-05-04T21:24:23.948Z,8.45
2023-05-04T21:26:50.682Z,8.55
2023-05-04T21:29:17.358Z,8.47
2023-05-04T21:31:44.289Z,8.54
2023-05-04T21:34:11.005Z,8.43
2023-05-04T21:36:39.199Z,8.59
2023-05-04T21:39:06.162Z,8.42
2023-05-04T21:41:32.992Z,8.47
2023-05-04T21:43:59.704Z,8.55
2023-05-04T21:46:26.488Z,8.50
2023-05-04T21:48:53.516Z,8.53
2023-05-04T21:51:20.987Z,8.46
2023-05-04T21:53:48.042Z,8.50
2023-05-04T21:56:14.909Z,8.63
2023-05-04T21:58:42.261Z,8.72
2023-05-04T22:01:09.851Z,8.70
2023-05-04T22:03:36.760Z,8.83
2023-05-04T22:06:03.848Z,8.78
2023-05-04T22:08:30.586Z,8.79
2023-05-04T22:10:58.818Z,8.85
2023-05-04T22:13:26.172Z,8.86
2023-05-04T22:15:53.701Z,8.82
2023-05-04T22:18:21.094Z,8.88
2023-05-04T22:20:48.137Z,8.74
2023-05-04T22:23:15.003Z,8.89
2023-05-04T22:25:42.140Z,8.86
2023-05-04T22:28:08.964Z,8.65
2023-05-04T22:30:35.676Z,8.55
2023-05-04T22:33:02.722Z,8.41
2023-05-04T22:35:31.494Z,8.46
2023-05-04T22:37:59.197Z,8.51
2023-05-04T22:40:26.087Z,8.26
2023-05-04T22:42:52.858Z,8.24
2023-05-04T22:45:19.920Z,8.30
2023-05-04T22:47:47.035Z,8.22
2023-05-04T22:50:14.398Z,8.38
2023-05-04T22:52:41.593Z,8.23
2023-05-04T22:55:09.304Z,8.36
2023-05-04T22:57:36.399Z,8.26
2023-05-04T23:00:05.598Z,8.18
2023-05-04T23:02:32.568Z,8.35
2023-05-04T23:05:00.674Z,8.38
2023-05-04T23:07:27.491Z,8.31
2023-05-04T23:09:54.367Z,8.36
2023-05-04T23:12:21.028Z,8.22
2023-05-04T23:14:52.389Z,8.24
2023-05-04T23:17:19.650Z,8.45
2023-05-04T23:19:46.287Z,8.47
2023-05-04T23:22:13.704Z,8.53
2023-05-04T23:24:40.739Z,8.29
2023-05-04T23:27:07.444Z,8.43
2023-05-04T23:29:34.168Z,8.25
2023-05-04T23:32:01.313Z,8.24
2023-05-04T23:34:28.099Z,8.21
2023-05-04T23:36:55.188Z,8.32
2023-05-04T23:39:22.072Z,8.22
2023-05-04T23:41:49.104Z,7.93
2023-05-04T23:44:16.631Z,8.02
2023-05-04T23:46:45.926Z,7.99
2023-05-04T23:49:13.012Z,8.03
2023-05-04T23:51:39.730Z,7.90
2023-05-04T23:54:06.913Z,7.64
2023-05-04T23:56:33.629Z,7.65
2023-05-04T23:59:00.339Z,7.65
